ARE4428 SKBO-SKPS
Flight info
| Callsign | ARE4428 |
|---|---|
| Flight time | 0h 46m |
| Altitude | 32000 |
| Route | VAPOM4R VAPOM DCT OREGA DCT PPN DCT MER |
| Aircraft | A320/M-SDE3FGHIRWY/LB1 |
Departure
| Time | 2026-04-26 14:58 |
|---|---|
| Airport | El Dorado International Airport (SKBO) |
Arrival
| Time | 2026-04-26 15:44 |
|---|---|
| Airport | Antonio Nariño Airport (SKPS) |
| Time | Latitude | Longitude | Altitude | Speed | Heading |
|---|---|---|---|---|---|
| 2026-04-26 14:27 | 4.70061 | -74.14442 | 8373 ft | 0 kts | 60° |
| 2026-04-26 14:47 | 4.70059 | -74.14445 | 8373 ft | 3 kts | 59° |
| 2026-04-26 14:47 | 4.70043 | -74.14465 | 8372 ft | 4 kts | 32° |
| 2026-04-26 14:47 | 4.70021 | -74.14472 | 8373 ft | 4 kts | 337° |
| 2026-04-26 14:48 | 4.70004 | -74.14457 | 8373 ft | 4 kts | 310° |
| 2026-04-26 14:48 | 4.69996 | -74.14447 | 8373 ft | 0 kts | 307° |
| 2026-04-26 14:50 | 4.70005 | -74.14459 | 8373 ft | 4 kts | 307° |
| 2026-04-26 14:50 | 4.70030 | -74.14491 | 8373 ft | 8 kts | 308° |
| 2026-04-26 14:50 | 4.70068 | -74.14544 | 8373 ft | 11 kts | 304° |
| 2026-04-26 14:50 | 4.70104 | -74.14619 | 8372 ft | 13 kts | 310° |
| 2026-04-26 14:51 | 4.70162 | -74.14696 | 8373 ft | 15 kts | 265° |
| 2026-04-26 14:51 | 4.70082 | -74.14771 | 8371 ft | 17 kts | 219° |
| 2026-04-26 14:51 | 4.69980 | -74.14851 | 8372 ft | 20 kts | 217° |
| 2026-04-26 14:51 | 4.69879 | -74.14928 | 8373 ft | 13 kts | 219° |
| 2026-04-26 14:52 | 4.69885 | -74.15014 | 8371 ft | 15 kts | 306° |
| 2026-04-26 14:52 | 4.69955 | -74.15106 | 8373 ft | 18 kts | 308° |
| 2026-04-26 14:52 | 4.70033 | -74.15211 | 8373 ft | 20 kts | 307° |
| 2026-04-26 14:52 | 4.70122 | -74.15325 | 8373 ft | 21 kts | 309° |
| 2026-04-26 14:53 | 4.70208 | -74.15441 | 8373 ft | 20 kts | 307° |
| 2026-04-26 14:53 | 4.70289 | -74.15550 | 8373 ft | 19 kts | 307° |
| 2026-04-26 14:53 | 4.70368 | -74.15652 | 8373 ft | 18 kts | 308° |
| 2026-04-26 14:53 | 4.70439 | -74.15749 | 8373 ft | 17 kts | 307° |
| 2026-04-26 14:54 | 4.70514 | -74.15845 | 8373 ft | 18 kts | 308° |
| 2026-04-26 14:54 | 4.70596 | -74.15954 | 8373 ft | 21 kts | 306° |
| 2026-04-26 14:54 | 4.70690 | -74.16079 | 8374 ft | 24 kts | 307° |
| 2026-04-26 14:54 | 4.70795 | -74.16217 | 8373 ft | 26 kts | 307° |
| 2026-04-26 14:55 | 4.70908 | -74.16367 | 8374 ft | 28 kts | 308° |
| 2026-04-26 14:55 | 4.71031 | -74.16527 | 8370 ft | 29 kts | 307° |
| 2026-04-26 14:55 | 4.71152 | -74.16688 | 8371 ft | 28 kts | 307° |
| 2026-04-26 14:55 | 4.71192 | -74.16798 | 8372 ft | 15 kts | 231° |
| 2026-04-26 14:56 | 4.71139 | -74.16841 | 8373 ft | 5 kts | 217° |
| 2026-04-26 14:56 | 4.71115 | -74.16859 | 8373 ft | 3 kts | 217° |
| 2026-04-26 14:56 | 4.71101 | -74.16870 | 8373 ft | 2 kts | 217° |
| 2026-04-26 14:56 | 4.71054 | -74.16883 | 8373 ft | 13 kts | 176° |
| 2026-04-26 14:57 | 4.70960 | -74.16783 | 8373 ft | 31 kts | 130° |
| 2026-04-26 14:57 | 4.70685 | -74.16429 | 8375 ft | 98 kts | 127° |
| 2026-04-26 14:57 | 4.70148 | -74.15716 | 8373 ft | 156 kts | 127° |
| 2026-04-26 14:57 | 4.69397 | -74.14721 | 8435 ft | 196 kts | 126° |
| 2026-04-26 14:58 | 4.68564 | -74.13618 | 9019 ft | 201 kts | 127° |
| 2026-04-26 14:58 | 4.67480 | -74.12695 | 9678 ft | 207 kts | 159° |
| 2026-04-26 14:58 | 4.66083 | -74.12660 | 10210 ft | 204 kts | 204° |
| 2026-04-26 14:58 | 4.65058 | -74.13596 | 10670 ft | 201 kts | 240° |
| 2026-04-26 14:59 | 4.64424 | -74.14843 | 11126 ft | 200 kts | 245° |
| 2026-04-26 14:59 | 4.63838 | -74.16112 | 11517 ft | 204 kts | 245° |
| 2026-04-26 14:59 | 4.63206 | -74.17440 | 11640 ft | 223 kts | 244° |
| 2026-04-26 14:59 | 4.62725 | -74.18405 | 11720 ft | 236 kts | 243° |
| 2026-04-26 15:00 | 4.61689 | -74.20416 | 12163 ft | 250 kts | 248° |
| 2026-04-26 15:00 | 4.61250 | -74.22134 | 12514 ft | 264 kts | 260° |
| 2026-04-26 15:00 | 4.60906 | -74.24026 | 12677 ft | 287 kts | 259° |
| 2026-04-26 15:00 | 4.60527 | -74.26073 | 12825 ft | 310 kts | 259° |
| 2026-04-26 15:01 | 4.59851 | -74.28202 | 12951 ft | 333 kts | 242° |
| 2026-04-26 15:01 | 4.58640 | -74.30264 | 13079 ft | 354 kts | 240° |
| 2026-04-26 15:01 | 4.57463 | -74.32472 | 13477 ft | 364 kts | 243° |
| 2026-04-26 15:01 | 4.56328 | -74.34762 | 14064 ft | 368 kts | 244° |
| 2026-04-26 15:02 | 4.55205 | -74.37083 | 14575 ft | 372 kts | 244° |
| 2026-04-26 15:02 | 4.54067 | -74.39422 | 15105 ft | 375 kts | 244° |
| 2026-04-26 15:02 | 4.52904 | -74.41772 | 15613 ft | 378 kts | 244° |
| 2026-04-26 15:02 | 4.51713 | -74.44135 | 16137 ft | 381 kts | 243° |
| 2026-04-26 15:03 | 4.50498 | -74.46514 | 16658 ft | 384 kts | 243° |
| 2026-04-26 15:03 | 4.49268 | -74.48904 | 17186 ft | 387 kts | 243° |
| 2026-04-26 15:03 | 4.48026 | -74.51311 | 17650 ft | 390 kts | 243° |
| 2026-04-26 15:03 | 4.46794 | -74.53704 | 18142 ft | 393 kts | 243° |
| 2026-04-26 15:04 | 4.45536 | -74.56153 | 18606 ft | 396 kts | 243° |
| 2026-04-26 15:04 | 4.44272 | -74.58616 | 19026 ft | 399 kts | 243° |
| 2026-04-26 15:04 | 4.42998 | -74.61102 | 19430 ft | 402 kts | 243° |
| 2026-04-26 15:04 | 4.41716 | -74.63606 | 19863 ft | 405 kts | 243° |
| 2026-04-26 15:05 | 4.40425 | -74.66131 | 20018 ft | 408 kts | 243° |
| 2026-04-26 15:05 | 4.39989 | -74.66986 | 20037 ft | 408 kts | 243° |
| 2026-04-26 15:05 | 4.37833 | -74.71194 | 20029 ft | 408 kts | 243° |
| 2026-04-26 15:05 | 4.36533 | -74.73715 | 20013 ft | 407 kts | 243° |
| 2026-04-26 15:06 | 4.35231 | -74.76238 | 20003 ft | 408 kts | 243° |
| 2026-04-26 15:06 | 4.33930 | -74.78759 | 20002 ft | 407 kts | 243° |
| 2026-04-26 15:06 | 4.32624 | -74.81288 | 20002 ft | 408 kts | 243° |
| 2026-04-26 15:06 | 4.31321 | -74.83808 | 20002 ft | 408 kts | 243° |
| 2026-04-26 15:07 | 4.28736 | -74.88817 | 20003 ft | 408 kts | 243° |
| 2026-04-26 15:07 | 4.27437 | -74.91343 | 20019 ft | 408 kts | 243° |
| 2026-04-26 15:07 | 4.26138 | -74.93865 | 20032 ft | 408 kts | 243° |
| 2026-04-26 15:08 | 4.24834 | -74.96393 | 20044 ft | 408 kts | 243° |
| 2026-04-26 15:08 | 4.23536 | -74.98915 | 20059 ft | 408 kts | 243° |
| 2026-04-26 15:08 | 4.22234 | -75.01440 | 20131 ft | 408 kts | 243° |
| 2026-04-26 15:08 | 4.20920 | -75.03958 | 20144 ft | 408 kts | 240° |
| 2026-04-26 15:09 | 4.19317 | -75.06304 | 20306 ft | 411 kts | 233° |
| 2026-04-26 15:09 | 4.17591 | -75.08594 | 20791 ft | 413 kts | 233° |
| 2026-04-26 15:09 | 4.15860 | -75.10904 | 21234 ft | 416 kts | 233° |
| 2026-04-26 15:09 | 4.14119 | -75.13235 | 21642 ft | 419 kts | 233° |
| 2026-04-26 15:10 | 4.12365 | -75.15584 | 22020 ft | 423 kts | 233° |
| 2026-04-26 15:10 | 4.11198 | -75.17147 | 22277 ft | 425 kts | 233° |
| 2026-04-26 15:10 | 4.08814 | -75.20333 | 22796 ft | 429 kts | 233° |
| 2026-04-26 15:10 | 4.07013 | -75.22740 | 23200 ft | 432 kts | 233° |
| 2026-04-26 15:11 | 4.05207 | -75.25154 | 23573 ft | 435 kts | 233° |
| 2026-04-26 15:11 | 4.03390 | -75.27586 | 23912 ft | 437 kts | 233° |
| 2026-04-26 15:11 | 4.01592 | -75.29995 | 24226 ft | 439 kts | 233° |
| 2026-04-26 15:11 | 3.99757 | -75.32448 | 24541 ft | 441 kts | 232° |
| 2026-04-26 15:12 | 3.97909 | -75.34914 | 24823 ft | 443 kts | 232° |
| 2026-04-26 15:12 | 3.96057 | -75.37388 | 25152 ft | 445 kts | 232° |
| 2026-04-26 15:12 | 3.94198 | -75.39870 | 25450 ft | 447 kts | 232° |
| 2026-04-26 15:12 | 3.92330 | -75.42366 | 25744 ft | 449 kts | 232° |
| 2026-04-26 15:13 | 3.90453 | -75.44875 | 26021 ft | 451 kts | 232° |
| 2026-04-26 15:13 | 3.88568 | -75.47388 | 26288 ft | 453 kts | 232° |
| 2026-04-26 15:13 | 3.86511 | -75.49776 | 26600 ft | 453 kts | 223° |
| 2026-04-26 15:13 | 3.84118 | -75.51833 | 26881 ft | 454 kts | 217° |
| 2026-04-26 15:14 | 3.81655 | -75.53771 | 27133 ft | 456 kts | 217° |
| 2026-04-26 15:14 | 3.79160 | -75.55733 | 27413 ft | 457 kts | 217° |
| 2026-04-26 15:14 | 3.76655 | -75.57708 | 27689 ft | 459 kts | 217° |
| 2026-04-26 15:14 | 3.74142 | -75.59692 | 27957 ft | 461 kts | 217° |
| 2026-04-26 15:15 | 3.71622 | -75.61680 | 28219 ft | 462 kts | 217° |
| 2026-04-26 15:15 | 3.69090 | -75.63676 | 28465 ft | 464 kts | 217° |
| 2026-04-26 15:15 | 3.66548 | -75.65676 | 28712 ft | 466 kts | 217° |
| 2026-04-26 15:15 | 3.63993 | -75.67688 | 28937 ft | 468 kts | 217° |
| 2026-04-26 15:16 | 3.61435 | -75.69707 | 29155 ft | 469 kts | 217° |
| 2026-04-26 15:16 | 3.58861 | -75.71737 | 29386 ft | 471 kts | 216° |
| 2026-04-26 15:16 | 3.56280 | -75.73768 | 29584 ft | 472 kts | 216° |
| 2026-04-26 15:16 | 3.53692 | -75.75806 | 29792 ft | 474 kts | 216° |
| 2026-04-26 15:17 | 3.51132 | -75.77825 | 30010 ft | 475 kts | 216° |
| 2026-04-26 15:17 | 3.50254 | -75.78517 | 30103 ft | 476 kts | 216° |
| 2026-04-26 15:17 | 3.45932 | -75.81921 | 30511 ft | 475 kts | 216° |
| 2026-04-26 15:17 | 3.43338 | -75.83962 | 30780 ft | 474 kts | 216° |
| 2026-04-26 15:18 | 3.40751 | -75.86002 | 31036 ft | 473 kts | 217° |
| 2026-04-26 15:18 | 3.38165 | -75.88041 | 31260 ft | 473 kts | 216° |
| 2026-04-26 15:18 | 3.36456 | -75.89389 | 31427 ft | 472 kts | 216° |
| 2026-04-26 15:18 | 3.33879 | -75.91421 | 31698 ft | 471 kts | 216° |
| 2026-04-26 15:19 | 3.31299 | -75.93452 | 31957 ft | 471 kts | 216° |
| 2026-04-26 15:19 | 3.28727 | -75.95476 | 32128 ft | 471 kts | 216° |
| 2026-04-26 15:19 | 3.23610 | -75.99503 | 32166 ft | 465 kts | 216° |
| 2026-04-26 15:20 | 3.18528 | -76.03502 | 32166 ft | 465 kts | 216° |
| 2026-04-26 15:20 | 3.13445 | -76.07503 | 32152 ft | 465 kts | 216° |
| 2026-04-26 15:21 | 3.08364 | -76.11503 | 32158 ft | 465 kts | 216° |
| 2026-04-26 15:21 | 3.03281 | -76.15505 | 32162 ft | 465 kts | 217° |
| 2026-04-26 15:22 | 2.98226 | -76.19482 | 32162 ft | 465 kts | 217° |
| 2026-04-26 15:22 | 2.93138 | -76.23479 | 32144 ft | 465 kts | 216° |
| 2026-04-26 15:23 | 2.88047 | -76.27481 | 32139 ft | 466 kts | 216° |
| 2026-04-26 15:23 | 2.82949 | -76.31491 | 32141 ft | 466 kts | 216° |
| 2026-04-26 15:24 | 2.77855 | -76.35499 | 32151 ft | 466 kts | 216° |
| 2026-04-26 15:24 | 2.72755 | -76.39509 | 32141 ft | 467 kts | 216° |
| 2026-04-26 15:25 | 2.67655 | -76.43522 | 32168 ft | 467 kts | 216° |
| 2026-04-26 15:25 | 2.62550 | -76.47538 | 32206 ft | 467 kts | 216° |
| 2026-04-26 15:26 | 2.57472 | -76.51527 | 32025 ft | 467 kts | 216° |
| 2026-04-26 15:26 | 2.54917 | -76.53533 | 31535 ft | 468 kts | 216° |
| 2026-04-26 15:26 | 2.52333 | -76.55562 | 30410 ft | 476 kts | 216° |
| 2026-04-26 15:27 | 2.49717 | -76.57620 | 29554 ft | 475 kts | 216° |
| 2026-04-26 15:27 | 2.47141 | -76.59649 | 28912 ft | 469 kts | 216° |
| 2026-04-26 15:27 | 2.44587 | -76.61655 | 28240 ft | 464 kts | 217° |
| 2026-04-26 15:27 | 2.42073 | -76.63654 | 27578 ft | 460 kts | 217° |
| 2026-04-26 15:28 | 2.39596 | -76.65664 | 26932 ft | 457 kts | 218° |
| 2026-04-26 15:28 | 2.37149 | -76.67673 | 26276 ft | 453 kts | 218° |
| 2026-04-26 15:28 | 2.34725 | -76.69670 | 25617 ft | 451 kts | 218° |
| 2026-04-26 15:28 | 2.32311 | -76.71652 | 24970 ft | 448 kts | 218° |
| 2026-04-26 15:29 | 2.29905 | -76.73621 | 24335 ft | 446 kts | 219° |
| 2026-04-26 15:29 | 2.27507 | -76.75576 | 23695 ft | 443 kts | 219° |
| 2026-04-26 15:29 | 2.22763 | -76.79434 | 22446 ft | 434 kts | 219° |
| 2026-04-26 15:30 | 2.18127 | -76.83201 | 21384 ft | 425 kts | 219° |
| 2026-04-26 15:30 | 2.15847 | -76.85059 | 20877 ft | 421 kts | 219° |
| 2026-04-26 15:30 | 2.13590 | -76.86898 | 20373 ft | 417 kts | 219° |
| 2026-04-26 15:31 | 2.11346 | -76.88727 | 19873 ft | 414 kts | 219° |
| 2026-04-26 15:31 | 2.06910 | -76.92342 | 18862 ft | 409 kts | 219° |
| 2026-04-26 15:31 | 2.04706 | -76.94136 | 18307 ft | 408 kts | 219° |
| 2026-04-26 15:32 | 2.01066 | -76.97095 | 17381 ft | 403 kts | 219° |
| 2026-04-26 15:32 | 1.98173 | -76.99446 | 16674 ft | 399 kts | 219° |
| 2026-04-26 15:32 | 1.96054 | -77.01170 | 16164 ft | 396 kts | 219° |
| 2026-04-26 15:33 | 1.93924 | -77.02902 | 15616 ft | 394 kts | 219° |
| 2026-04-26 15:33 | 1.91803 | -77.04626 | 15103 ft | 392 kts | 219° |
| 2026-04-26 15:33 | 1.89716 | -77.06322 | 14905 ft | 380 kts | 219° |
| 2026-04-26 15:33 | 1.87707 | -77.07959 | 14788 ft | 366 kts | 219° |
| 2026-04-26 15:34 | 1.85769 | -77.09540 | 14642 ft | 354 kts | 219° |
| 2026-04-26 15:34 | 1.83891 | -77.11069 | 14533 ft | 342 kts | 219° |
| 2026-04-26 15:34 | 1.82076 | -77.12545 | 14416 ft | 331 kts | 219° |
| 2026-04-26 15:34 | 1.80316 | -77.13978 | 14299 ft | 321 kts | 219° |
| 2026-04-26 15:35 | 1.78587 | -77.15285 | 14178 ft | 302 kts | 211° |
| 2026-04-26 15:35 | 1.76780 | -77.16276 | 13813 ft | 293 kts | 208° |
| 2026-04-26 15:35 | 1.75000 | -77.17228 | 13460 ft | 288 kts | 208° |
| 2026-04-26 15:35 | 1.73227 | -77.18173 | 13207 ft | 287 kts | 207° |
| 2026-04-26 15:36 | 1.71469 | -77.19109 | 12947 ft | 285 kts | 207° |
| 2026-04-26 15:36 | 1.69742 | -77.20032 | 12688 ft | 284 kts | 208° |
| 2026-04-26 15:36 | 1.68006 | -77.20962 | 12432 ft | 283 kts | 207° |
| 2026-04-26 15:36 | 1.66273 | -77.21890 | 12175 ft | 282 kts | 208° |
| 2026-04-26 15:37 | 1.64546 | -77.22815 | 11917 ft | 281 kts | 207° |
| 2026-04-26 15:37 | 1.62828 | -77.23736 | 11657 ft | 280 kts | 207° |
| 2026-04-26 15:37 | 1.61115 | -77.24653 | 11402 ft | 279 kts | 207° |
| 2026-04-26 15:37 | 1.59393 | -77.25576 | 10971 ft | 283 kts | 207° |
| 2026-04-26 15:38 | 1.57670 | -77.26500 | 10704 ft | 280 kts | 207° |
| 2026-04-26 15:38 | 1.55960 | -77.27417 | 10410 ft | 278 kts | 207° |
| 2026-04-26 15:38 | 1.54263 | -77.28325 | 10149 ft | 275 kts | 207° |
| 2026-04-26 15:38 | 1.52583 | -77.29224 | 9891 ft | 272 kts | 207° |
| 2026-04-26 15:39 | 1.50912 | -77.30083 | 9629 ft | 268 kts | 206° |
| 2026-04-26 15:39 | 1.49258 | -77.30910 | 9378 ft | 263 kts | 205° |
| 2026-04-26 15:39 | 1.47652 | -77.31705 | 9183 ft | 258 kts | 206° |
| 2026-04-26 15:39 | 1.46571 | -77.32239 | 9014 ft | 254 kts | 206° |
| 2026-04-26 15:40 | 1.44496 | -77.33267 | 8739 ft | 250 kts | 206° |
| 2026-04-26 15:40 | 1.42944 | -77.34041 | 8635 ft | 248 kts | 206° |
| 2026-04-26 15:40 | 1.41449 | -77.34789 | 8653 ft | 234 kts | 206° |
| 2026-04-26 15:40 | 1.40028 | -77.35499 | 8841 ft | 219 kts | 206° |
| 2026-04-26 15:41 | 1.38745 | -77.36141 | 8809 ft | 194 kts | 206° |
| 2026-04-26 15:41 | 1.37507 | -77.36521 | 8590 ft | 184 kts | 184° |
| 2026-04-26 15:41 | 1.36266 | -77.36414 | 8312 ft | 175 kts | 162° |
| 2026-04-26 15:41 | 1.35207 | -77.35896 | 8123 ft | 167 kts | 142° |
| 2026-04-26 15:42 | 1.34415 | -77.35069 | 7900 ft | 165 kts | 123° |
| 2026-04-26 15:42 | 1.33950 | -77.34030 | 7646 ft | 163 kts | 102° |
| 2026-04-26 15:42 | 1.33859 | -77.32917 | 7392 ft | 160 kts | 84° |
| 2026-04-26 15:42 | 1.34135 | -77.31850 | 7144 ft | 159 kts | 64° |
| 2026-04-26 15:43 | 1.34737 | -77.30938 | 6897 ft | 157 kts | 44° |
| 2026-04-26 15:43 | 1.35591 | -77.30274 | 6667 ft | 155 kts | 26° |
| 2026-04-26 15:43 | 1.37603 | -77.29642 | 6220 ft | 152 kts | 14° |
| 2026-04-26 15:44 | 1.38634 | -77.29368 | 6007 ft | 152 kts | 14° |
| 2026-04-26 15:44 | 1.40196 | -77.28954 | 5885 ft | 62 kts | 15° |
| 2026-04-26 15:44 | 1.40470 | -77.28883 | 5860 ft | 26 kts | 14° |
| 2026-04-26 15:45 | 1.40616 | -77.28845 | 5852 ft | 1 kts | 168° |
| 2026-04-26 15:45 | 1.40562 | -77.28855 | 5858 ft | 16 kts | 193° |
| 2026-04-26 15:46 | 1.40296 | -77.28926 | 5880 ft | 23 kts | 194° |
| 2026-04-26 15:46 | 1.40132 | -77.28969 | 5879 ft | 26 kts | 195° |
| 2026-04-26 15:46 | 1.39947 | -77.29016 | 5896 ft | 29 kts | 194° |
| 2026-04-26 15:46 | 1.39831 | -77.29050 | 5895 ft | 23 kts | 196° |
| 2026-04-26 15:47 | 1.39675 | -77.29069 | 5903 ft | 12 kts | 131° |
| 2026-04-26 15:47 | 1.39665 | -77.29041 | 5904 ft | 0 kts | 110° |
| 2026-04-26 15:48 | 1.39656 | -77.29031 | 5905 ft | 8 kts | 140° |
| 2026-04-26 15:48 | 1.39617 | -77.29007 | 5907 ft | 4 kts | 117° |
| 2026-04-26 15:48 | 1.39610 | -77.28987 | 5906 ft | 0 kts | 104° |